Airfield :
LOGIN :

Register | Disclaimer

   EN    FR    IT 

 










Legend :    VFR   Marginal VFR   IFR   Intensive IFR   Very Intensive IFR
Visi :
Ceiling :
>= 8 km
>= 3000ft
5 to 8 km
1000 to 3000 ft
1500m to 5 km
500 to 1000 ft
800 to 1500m
200 to 500 ft
< 800m
< 200 ft
Symbols :   Thunderstorms  Fog  Heavy snow  Heavy precipitations  Wind > 20 kt
SIGMETs :     Misc.  Thunderstorms  Icing  Turbulence  Mountain Waves  Volcanic Ashes






- Airport Elevation : 446 ft
- IATA code : VNE


LFRV - Vannes-Meucon

CURRENT METAR :
  • 101230Z AUTO 20012G24KT 160V260 9999 OVC017 11/09 Q1021

EXPIRED METARs :
  • 101200Z AUTO 20012KT 170V240 9999 FEW014 BKN021 OVC027 11/09 Q1021
  • 101130Z AUTO 20010KT 170V240 9999 BKN016 OVC054 11/09 Q1022
  • 101100Z AUTO 19013G24KT 170V230 9999 SCT019 BKN052 OVC066 11/09 Q1022
  • 101030Z AUTO 20010KT 170V240 9999 -DZ OVC020 11/08 Q1023
  • 101000Z AUTO 19010KT 170V240 9999 BKN024 OVC110 10/08 Q1023

TAF N/A



MET'MAP, your aeronautical weather chart ! - Copyright ORBIFLY December 2007 - Disclaimer

ORBIFLY MET'MAP TEAM :

Programming & Development : Alexandra Zaïnal
Concept & original design : Baudouin d'Aumeries
Assistance for programming : Marc-Olivier Méhu
Technical & hardware support : Manuel Goepfert

Contact : metmap@orbifly.com




SOURCES & CREDITS :

   NOAA